createdAt,value
2022-11-23T00:00:35.023Z,8.18
2022-11-23T00:01:32.341Z,8.17
2022-11-23T00:02:32.418Z,8.13
2022-11-23T00:03:32.301Z,8.14
2022-11-23T00:04:32.300Z,8.21
2022-11-23T00:05:32.282Z,8.21
2022-11-23T00:06:32.277Z,8.17
2022-11-23T00:07:32.327Z,8.18
2022-11-23T00:08:32.290Z,8.13
2022-11-23T00:09:32.425Z,8.14
2022-11-23T00:10:32.245Z,8.24
2022-11-23T00:11:33.023Z,8.13
2022-11-23T00:12:32.214Z,8.17
2022-11-23T00:13:32.190Z,8.13
2022-11-23T00:14:32.313Z,8.07
2022-11-23T00:15:32.168Z,8.13
2022-11-23T00:16:33.026Z,8.14
2022-11-23T00:17:32.160Z,8.14
2022-11-23T00:18:32.168Z,8.10
2022-11-23T00:19:35.025Z,8.10
2022-11-23T00:20:35.041Z,8.10
2022-11-23T00:21:33.027Z,8.13
2022-11-23T00:22:32.102Z,8.18
2022-11-23T00:23:32.123Z,8.22
2022-11-23T00:24:32.096Z,8.22
2022-11-23T00:25:33.021Z,8.21
2022-11-23T00:26:39.022Z,8.20
2022-11-23T00:27:32.041Z,8.24
2022-11-23T00:28:32.041Z,8.29
2022-11-23T00:29:32.338Z,8.29
2022-11-23T00:30:32.040Z,8.29
2022-11-23T00:31:31.991Z,8.29
2022-11-23T00:32:32.007Z,8.25
2022-11-23T00:33:32.527Z,8.22
2022-11-23T00:34:32.056Z,8.22
2022-11-23T00:35:31.948Z,8.22
2022-11-23T00:36:38.527Z,8.21
2022-11-23T00:37:31.929Z,8.28
2022-11-23T00:38:31.941Z,8.27
2022-11-23T00:39:32.170Z,8.29
2022-11-23T00:40:31.887Z,8.24
2022-11-23T00:41:31.864Z,8.29
2022-11-23T00:42:36.662Z,8.32
2022-11-23T00:43:32.856Z,8.32
2022-11-23T00:44:31.826Z,8.25
2022-11-23T00:45:32.044Z,8.32
2022-11-23T00:46:32.545Z,8.29
2022-11-23T00:47:31.838Z,8.39
2022-11-23T00:48:31.800Z,8.39
2022-11-23T00:49:32.191Z,8.31
2022-11-23T00:50:31.788Z,8.29
2022-11-23T00:51:32.525Z,8.31
2022-11-23T00:52:31.781Z,8.34
2022-11-23T00:53:31.754Z,8.42
2022-11-23T00:54:35.025Z,8.42
2022-11-23T00:55:31.722Z,8.46
2022-11-23T00:56:31.722Z,8.52
2022-11-23T00:57:31.718Z,8.40
2022-11-23T00:58:31.695Z,8.49
2022-11-23T00:59:32.002Z,8.40
2022-11-23T01:00:32.533Z,8.42
2022-11-23T01:01:31.698Z,8.46
2022-11-23T01:02:31.672Z,8.43
2022-11-23T01:03:31.654Z,8.46
2022-11-23T01:04:31.635Z,8.49
2022-11-23T01:05:31.615Z,8.46
2022-11-23T01:06:32.534Z,8.52
2022-11-23T01:07:31.697Z,8.49
2022-11-23T01:08:31.583Z,8.47
2022-11-23T01:09:31.971Z,8.50
2022-11-23T01:10:31.605Z,8.50
2022-11-23T01:11:31.556Z,8.49
2022-11-23T01:12:38.534Z,8.49
2022-11-23T01:13:31.520Z,8.47
2022-11-23T01:14:32.038Z,8.46
2022-11-23T01:15:31.544Z,8.46
2022-11-23T01:16:31.500Z,8.47
2022-11-23T01:17:32.033Z,8.40
2022-11-23T01:18:31.500Z,8.49
2022-11-23T01:19:34.335Z,8.46
2022-11-23T01:20:31.465Z,8.40
2022-11-23T01:21:31.437Z,8.50
2022-11-23T01:22:31.458Z,8.43
2022-11-23T01:23:32.019Z,8.49
2022-11-23T01:24:31.406Z,8.47
2022-11-23T01:25:31.384Z,8.54
2022-11-23T01:26:35.042Z,8.47
2022-11-23T01:27:31.370Z,8.50
2022-11-23T01:28:31.388Z,8.47
2022-11-23T01:29:32.220Z,8.46
2022-11-23T01:30:32.357Z,8.47
2022-11-23T01:31:32.041Z,8.52
2022-11-23T01:32:32.045Z,8.46
2022-11-23T01:33:32.017Z,8.50
2022-11-23T01:34:31.614Z,8.47
2022-11-23T01:35:34.031Z,8.50
2022-11-23T01:36:31.274Z,8.50
2022-11-23T01:37:31.255Z,8.54
2022-11-23T01:38:31.259Z,8.57
2022-11-23T01:39:31.659Z,8.52
2022-11-23T01:40:31.250Z,8.47
2022-11-23T01:41:31.231Z,8.49
2022-11-23T01:42:31.208Z,8.47
2022-11-23T01:43:31.191Z,8.45
2022-11-23T01:44:31.222Z,8.42
2022-11-23T01:45:31.196Z,8.39
2022-11-23T01:46:34.030Z,8.42
2022-11-23T01:47:32.037Z,8.45
2022-11-23T01:48:31.130Z,8.42
2022-11-23T01:49:31.363Z,8.39
2022-11-23T01:50:32.048Z,8.43
2022-11-23T01:51:31.113Z,8.42
2022-11-23T01:52:31.092Z,8.37
2022-11-23T01:53:31.097Z,8.37
2022-11-23T01:54:31.106Z,8.32
2022-11-23T01:55:31.052Z,8.34
2022-11-23T01:56:31.053Z,8.39
2022-11-23T01:57:31.050Z,8.32
2022-11-23T01:58:31.035Z,8.32
2022-11-23T01:59:31.769Z,8.28
2022-11-23T02:00:33.524Z,8.32
2022-11-23T02:01:31.117Z,8.37
2022-11-23T02:02:30.991Z,8.36
2022-11-23T02:03:30.962Z,8.36
2022-11-23T02:04:37.533Z,8.36
2022-11-23T02:05:33.520Z,8.34
2022-11-23T02:06:31.551Z,8.37
2022-11-23T02:07:30.978Z,8.37
2022-11-23T02:08:30.922Z,8.42
2022-11-23T02:09:31.249Z,8.36
2022-11-23T02:10:30.901Z,8.34
2022-11-23T02:11:30.901Z,8.32
2022-11-23T02:12:30.894Z,8.39
2022-11-23T02:13:30.856Z,8.36
2022-11-23T02:14:30.858Z,8.37
2022-11-23T02:15:30.831Z,8.36
2022-11-23T02:16:30.823Z,8.37
2022-11-23T02:17:30.839Z,8.34
2022-11-23T02:18:30.822Z,8.37
2022-11-23T02:19:31.069Z,8.37
2022-11-23T02:20:30.805Z,8.37
2022-11-23T02:21:30.767Z,8.37
2022-11-23T02:22:31.086Z,8.40
2022-11-23T02:23:31.527Z,8.36
2022-11-23T02:24:30.742Z,8.40
2022-11-23T02:25:30.722Z,8.31
2022-11-23T02:26:30.716Z,8.36
2022-11-23T02:27:30.731Z,8.36
2022-11-23T02:28:33.532Z,8.34
2022-11-23T02:29:31.025Z,8.36
2022-11-23T02:30:30.679Z,8.39
2022-11-23T02:31:31.522Z,8.37
2022-11-23T02:32:30.655Z,8.37
2022-11-23T02:33:30.634Z,8.24
2022-11-23T02:34:30.655Z,8.29
2022-11-23T02:35:31.539Z,8.27
2022-11-23T02:36:30.610Z,8.36
2022-11-23T02:37:30.592Z,8.29
2022-11-23T02:38:30.601Z,8.31
2022-11-23T02:39:32.055Z,8.31
2022-11-23T02:40:30.580Z,8.29
2022-11-23T02:41:30.554Z,8.28
2022-11-23T02:42:30.532Z,8.31
2022-11-23T02:43:30.524Z,8.27
2022-11-23T02:44:30.519Z,8.34
2022-11-23T02:45:33.025Z,8.37
2022-11-23T02:46:30.502Z,8.22
2022-11-23T02:47:30.634Z,8.32
2022-11-23T02:48:30.478Z,8.31
2022-11-23T02:49:30.848Z,8.27
2022-11-23T02:50:30.450Z,8.31
2022-11-23T02:51:30.428Z,8.27
2022-11-23T02:52:30.443Z,8.34
2022-11-23T02:53:30.410Z,8.36
2022-11-23T02:54:37.097Z,8.29
2022-11-23T02:55:30.382Z,8.22
2022-11-23T02:56:30.390Z,8.24
2022-11-23T02:57:30.390Z,8.31
2022-11-23T02:58:30.365Z,8.27
2022-11-23T02:59:30.760Z,8.28
2022-11-23T03:00:31.066Z,8.27
2022-11-23T03:01:30.320Z,8.25
2022-11-23T03:02:30.316Z,8.28
2022-11-23T03:03:30.320Z,8.27
2022-11-23T03:04:30.299Z,8.34
2022-11-23T03:05:31.026Z,8.37
2022-11-23T03:06:30.271Z,8.36
2022-11-23T03:07:31.079Z,8.39
2022-11-23T03:08:30.253Z,8.37
2022-11-23T03:09:30.853Z,8.34
2022-11-23T03:10:30.244Z,8.36
2022-11-23T03:11:30.196Z,8.34
2022-11-23T03:12:30.201Z,8.34
2022-11-23T03:13:30.188Z,8.34
2022-11-23T03:14:30.185Z,8.25
2022-11-23T03:15:30.185Z,8.37
2022-11-23T03:16:31.042Z,8.36
2022-11-23T03:17:30.133Z,8.36
2022-11-23T03:18:31.069Z,8.34
2022-11-23T03:19:30.763Z,8.39
2022-11-23T03:20:30.111Z,8.37
2022-11-23T03:21:30.098Z,8.36
2022-11-23T03:22:30.091Z,8.36
2022-11-23T03:23:30.060Z,8.34
2022-11-23T03:24:32.063Z,8.37
2022-11-23T03:25:30.056Z,8.37
2022-11-23T03:26:30.088Z,8.47
2022-11-23T03:27:31.049Z,8.34
2022-11-23T03:28:30.027Z,8.37
2022-11-23T03:29:32.786Z,8.32
2022-11-23T03:30:30.036Z,8.34
2022-11-23T03:31:29.992Z,8.34
2022-11-23T03:32:29.971Z,8.40
2022-11-23T03:33:29.975Z,8.34
2022-11-23T03:34:29.949Z,8.32
2022-11-23T03:35:29.959Z,8.37
2022-11-23T03:36:29.940Z,8.37
2022-11-23T03:37:29.923Z,8.32
2022-11-23T03:38:29.903Z,8.39
2022-11-23T03:39:30.052Z,8.39
2022-11-23T03:40:29.883Z,8.43
2022-11-23T03:41:30.526Z,8.39
2022-11-23T03:42:29.996Z,8.36
2022-11-23T03:43:30.548Z,8.37
2022-11-23T03:44:29.842Z,8.37
2022-11-23T03:45:31.557Z,8.37
2022-11-23T03:46:29.833Z,8.40
2022-11-23T03:47:30.840Z,8.40
2022-11-23T03:48:29.798Z,8.36
2022-11-23T03:49:30.000Z,8.40
2022-11-23T03:50:29.807Z,8.34
2022-11-23T03:51:29.787Z,8.36
2022-11-23T03:52:29.753Z,8.36
2022-11-23T03:53:29.747Z,8.34
2022-11-23T03:54:32.524Z,8.42
2022-11-23T03:55:29.745Z,8.39
2022-11-23T03:56:29.704Z,8.37
2022-11-23T03:57:29.707Z,8.36
2022-11-23T03:58:29.703Z,8.39
2022-11-23T03:59:30.243Z,8.40
2022-11-23T04:00:29.663Z,8.32
2022-11-23T04:01:29.702Z,8.36
2022-11-23T04:02:29.639Z,8.31
2022-11-23T04:03:29.740Z,8.39
2022-11-23T04:04:29.618Z,8.39
2022-11-23T04:05:29.636Z,8.40
2022-11-23T04:06:29.611Z,8.37
2022-11-23T04:07:30.165Z,8.42
2022-11-23T04:08:29.584Z,8.39
2022-11-23T04:09:29.838Z,8.34
2022-11-23T04:10:29.552Z,8.39
2022-11-23T04:11:29.545Z,8.34
2022-11-23T04:12:30.034Z,8.40
2022-11-23T04:13:29.552Z,8.39
2022-11-23T04:14:29.527Z,8.32
2022-11-23T04:15:30.049Z,8.36
2022-11-23T04:16:29.524Z,8.39
2022-11-23T04:17:29.481Z,8.34
2022-11-23T04:18:29.488Z,8.36
2022-11-23T04:19:32.281Z,8.37
2022-11-23T04:20:32.036Z,8.32
2022-11-23T04:21:30.034Z,8.31
2022-11-23T04:22:29.448Z,8.32
2022-11-23T04:23:29.430Z,8.42
2022-11-23T04:24:29.420Z,8.36
2022-11-23T04:25:29.398Z,8.42
2022-11-23T04:26:29.381Z,8.32
2022-11-23T04:27:29.382Z,8.32
2022-11-23T04:28:29.370Z,8.39
2022-11-23T04:29:29.469Z,8.31
2022-11-23T04:30:29.365Z,8.36
2022-11-23T04:31:32.037Z,8.40
2022-11-23T04:32:29.308Z,8.29
2022-11-23T04:33:29.295Z,8.36
2022-11-23T04:34:29.285Z,8.37
2022-11-23T04:35:29.570Z,8.34
2022-11-23T04:36:29.266Z,8.37
2022-11-23T04:37:29.253Z,8.34
2022-11-23T04:38:29.246Z,8.34
2022-11-23T04:39:32.879Z,8.29
2022-11-23T04:40:29.561Z,8.32
2022-11-23T04:41:29.211Z,8.42
2022-11-23T04:42:29.205Z,8.39
2022-11-23T04:43:30.040Z,8.37
2022-11-23T04:44:29.208Z,8.32
2022-11-23T04:45:29.194Z,8.32
2022-11-23T04:46:29.176Z,8.34
2022-11-23T04:47:29.154Z,8.40
2022-11-23T04:48:29.153Z,8.34
2022-11-23T04:49:29.349Z,8.36
2022-11-23T04:50:29.103Z,8.42
2022-11-23T04:51:31.064Z,8.37
2022-11-23T04:52:29.083Z,8.37
2022-11-23T04:53:30.027Z,8.40
2022-11-23T04:54:29.081Z,8.36
2022-11-23T04:55:29.061Z,8.27
2022-11-23T04:56:29.060Z,8.28
2022-11-23T04:57:29.067Z,8.29
2022-11-23T04:58:34.208Z,8.32
2022-11-23T04:59:30.465Z,8.36
2022-11-23T05:00:29.526Z,8.31
2022-11-23T05:01:29.593Z,8.36
2022-11-23T05:02:29.023Z,8.24
2022-11-23T05:03:28.970Z,8.29
2022-11-23T05:04:31.527Z,8.17
2022-11-23T05:05:28.972Z,8.24
2022-11-23T05:06:28.927Z,8.27
2022-11-23T05:07:28.974Z,8.21
2022-11-23T05:08:29.527Z,8.21
2022-11-23T05:09:28.916Z,8.22
2022-11-23T05:10:29.057Z,8.24
2022-11-23T05:11:28.893Z,8.22
2022-11-23T05:12:28.863Z,8.21
2022-11-23T05:13:28.866Z,8.24
2022-11-23T05:14:28.842Z,8.20
2022-11-23T05:15:28.847Z,8.14
2022-11-23T05:16:28.821Z,8.20
2022-11-23T05:17:29.546Z,8.10
2022-11-23T05:18:28.843Z,8.10
2022-11-23T05:19:29.001Z,8.14
2022-11-23T05:20:28.788Z,8.18
2022-11-23T05:21:28.760Z,8.17
2022-11-23T05:22:28.772Z,8.13
2022-11-23T05:23:28.752Z,8.10
2022-11-23T05:24:28.731Z,8.21
2022-11-23T05:25:28.748Z,8.18
2022-11-23T05:26:35.528Z,8.12
2022-11-23T05:27:29.537Z,8.17
2022-11-23T05:28:44.031Z,8.14
2022-11-23T05:29:29.958Z,8.18
2022-11-23T05:30:28.666Z,8.18
2022-11-23T05:31:28.656Z,8.13
2022-11-23T05:32:28.669Z,8.14
2022-11-23T05:33:29.694Z,8.17
2022-11-23T05:34:28.652Z,8.17
2022-11-23T05:35:29.535Z,8.12
2022-11-23T05:36:28.596Z,8.14
2022-11-23T05:37:28.597Z,8.12
2022-11-23T05:38:28.574Z,8.24
2022-11-23T05:39:28.581Z,8.22
2022-11-23T05:40:28.564Z,8.14
2022-11-23T05:41:28.570Z,8.10
2022-11-23T05:42:28.535Z,8.10
2022-11-23T05:43:28.527Z,8.10
2022-11-23T05:44:28.512Z,8.12
2022-11-23T05:45:28.503Z,8.12
2022-11-23T05:46:28.501Z,8.12
2022-11-23T05:47:28.496Z,8.13
2022-11-23T05:48:28.474Z,8.12
2022-11-23T05:49:28.458Z,8.10
2022-11-23T05:50:28.455Z,8.12
2022-11-23T05:51:28.438Z,8.13
2022-11-23T05:52:28.423Z,8.03
2022-11-23T05:53:28.452Z,8.13
2022-11-23T05:54:28.421Z,8.13
2022-11-23T05:55:28.395Z,8.17
2022-11-23T05:56:28.398Z,8.09
2022-11-23T05:57:28.363Z,8.07
2022-11-23T05:58:28.368Z,8.14
2022-11-23T05:59:28.371Z,8.12
2022-11-23T06:00:28.333Z,8.10
2022-11-23T06:01:28.327Z,8.17
2022-11-23T06:02:28.330Z,8.12
2022-11-23T06:03:28.307Z,8.13
2022-11-23T06:04:28.366Z,8.12
2022-11-23T06:05:29.034Z,8.13
2022-11-23T06:06:28.283Z,8.12
2022-11-23T06:07:28.295Z,8.12
2022-11-23T06:08:28.247Z,8.14
2022-11-23T06:09:28.241Z,8.17
2022-11-23T06:10:28.224Z,8.10
2022-11-23T06:11:28.247Z,8.07
2022-11-23T06:12:28.197Z,8.09
2022-11-23T06:13:28.193Z,8.07
2022-11-23T06:14:28.172Z,8.07
2022-11-23T06:15:28.170Z,8.12
2022-11-23T06:16:28.155Z,8.12
2022-11-23T06:17:28.563Z,8.09
2022-11-23T06:18:28.136Z,8.06
2022-11-23T06:19:28.120Z,8.09
2022-11-23T06:20:28.130Z,8.09
2022-11-23T06:21:28.101Z,8.12
2022-11-23T06:22:28.115Z,8.03
2022-11-23T06:23:28.081Z,8.04
2022-11-23T06:24:28.078Z,8.17
2022-11-23T06:25:28.064Z,8.07
2022-11-23T06:26:28.057Z,8.12
2022-11-23T06:27:28.035Z,8.17
2022-11-23T06:28:28.051Z,8.06
2022-11-23T06:29:28.034Z,8.09
2022-11-23T06:30:28.006Z,8.03
2022-11-23T06:31:27.987Z,8.13
2022-11-23T06:32:27.973Z,8.07
2022-11-23T06:33:27.984Z,8.09
2022-11-23T06:34:27.963Z,8.09
2022-11-23T06:35:27.989Z,8.03
2022-11-23T06:36:27.950Z,8.09
2022-11-23T06:37:42.547Z,8.13
2022-11-23T06:38:27.904Z,8.06
2022-11-23T06:39:27.898Z,8.06
2022-11-23T06:40:27.894Z,8.04
2022-11-23T06:41:32.255Z,8.12
2022-11-23T06:42:43.338Z,8.10
2022-11-23T06:43:29.531Z,8.12
2022-11-23T06:44:27.845Z,7.95
2022-11-23T06:45:27.837Z,8.04
2022-11-23T06:46:27.824Z,7.96
2022-11-23T06:47:27.830Z,8.04
2022-11-23T06:48:27.840Z,8.00
2022-11-23T06:49:27.789Z,7.99
2022-11-23T06:50:27.787Z,8.02
2022-11-23T06:51:27.806Z,8.00
2022-11-23T06:52:27.770Z,7.96
2022-11-23T06:53:27.762Z,7.96
2022-11-23T06:54:28.767Z,7.99
2022-11-23T06:55:27.722Z,8.02
2022-11-23T06:56:27.707Z,8.02
2022-11-23T06:57:27.723Z,7.95
2022-11-23T06:58:28.550Z,7.96
2022-11-23T06:59:27.675Z,7.95
2022-11-23T07:00:27.661Z,7.96
2022-11-23T07:01:28.601Z,8.00
2022-11-23T07:02:27.636Z,7.99
2022-11-23T07:03:29.155Z,7.95
2022-11-23T07:04:27.626Z,7.92
2022-11-23T07:05:27.730Z,7.99
2022-11-23T07:06:30.534Z,8.04
2022-11-23T07:07:27.655Z,7.94
2022-11-23T07:08:27.602Z,7.99
2022-11-23T07:09:27.619Z,7.96
2022-11-23T07:10:28.567Z,8.03
2022-11-23T07:11:27.561Z,7.99
2022-11-23T07:12:27.542Z,7.94
2022-11-23T07:13:27.523Z,8.00
2022-11-23T07:14:27.567Z,7.99
2022-11-23T07:15:27.522Z,8.10
2022-11-23T07:16:27.485Z,8.12
2022-11-23T07:17:27.570Z,8.04
2022-11-23T07:18:27.467Z,8.04
2022-11-23T07:19:27.455Z,8.09
2022-11-23T07:20:30.029Z,8.12
2022-11-23T07:21:34.050Z,8.07
2022-11-23T07:22:27.425Z,8.03
2022-11-23T07:23:27.438Z,8.12
2022-11-23T07:24:27.401Z,8.12
2022-11-23T07:25:30.052Z,8.06
2022-11-23T07:26:27.387Z,8.09
2022-11-23T07:27:27.371Z,8.13
2022-11-23T07:28:27.370Z,8.17
2022-11-23T07:29:27.561Z,8.18
2022-11-23T07:30:29.541Z,8.14
2022-11-23T07:31:27.357Z,8.13
2022-11-23T07:32:27.335Z,8.13
2022-11-23T07:33:27.321Z,8.25
2022-11-23T07:34:27.287Z,8.21
2022-11-23T07:35:27.284Z,8.21
2022-11-23T07:36:27.290Z,8.17
2022-11-23T07:37:28.041Z,8.25
2022-11-23T07:38:27.248Z,8.25
2022-11-23T07:39:48.865Z,8.22
2022-11-23T07:40:29.030Z,8.24
2022-11-23T07:41:27.277Z,8.27
2022-11-23T07:42:33.934Z,8.24
2022-11-23T07:43:28.198Z,8.28
2022-11-23T07:44:27.172Z,8.20
2022-11-23T07:45:27.170Z,8.27
2022-11-23T07:46:28.025Z,8.22
2022-11-23T07:47:27.180Z,8.24
2022-11-23T07:48:29.733Z,8.31
2022-11-23T07:49:28.135Z,8.24
2022-11-23T07:50:27.113Z,8.31
2022-11-23T07:51:27.109Z,8.31
2022-11-23T07:52:27.088Z,8.28
2022-11-23T07:53:29.066Z,8.29
2022-11-23T07:54:27.070Z,8.39
2022-11-23T07:55:27.052Z,8.36
2022-11-23T07:56:27.049Z,8.25
2022-11-23T07:57:27.552Z,8.39
2022-11-23T07:58:27.047Z,8.40
2022-11-23T07:59:27.064Z,8.40
2022-11-23T08:00:27.011Z,8.37
2022-11-23T08:01:27.547Z,8.39
2022-11-23T08:02:29.583Z,8.37
2022-11-23T08:03:28.895Z,8.39
2022-11-23T08:04:33.864Z,8.37
2022-11-23T08:05:26.959Z,8.39
2022-11-23T08:06:26.939Z,8.37
2022-11-23T08:07:26.979Z,8.37
2022-11-23T08:08:26.940Z,8.42
2022-11-23T08:09:26.914Z,8.37
2022-11-23T08:10:26.914Z,8.42
2022-11-23T08:11:29.536Z,8.43
2022-11-23T08:12:26.876Z,8.37
2022-11-23T08:13:26.870Z,8.40
2022-11-23T08:14:26.863Z,8.49
2022-11-23T08:15:26.852Z,8.50
2022-11-23T08:16:26.847Z,8.45
2022-11-23T08:17:27.063Z,8.50
2022-11-23T08:18:26.810Z,8.47
2022-11-23T08:19:26.805Z,8.46
2022-11-23T08:20:27.537Z,8.57
2022-11-23T08:21:26.758Z,8.46
2022-11-23T08:22:27.076Z,8.47
2022-11-23T08:23:29.532Z,8.45
2022-11-23T08:24:33.997Z,8.50
2022-11-23T08:25:29.553Z,8.47
2022-11-23T08:26:26.729Z,8.50
2022-11-23T08:27:26.727Z,8.57
2022-11-23T08:28:26.695Z,8.60
2022-11-23T08:29:27.576Z,8.49
2022-11-23T08:30:41.572Z,8.50
2022-11-23T08:31:26.655Z,8.58
2022-11-23T08:32:26.665Z,8.55
2022-11-23T08:33:26.639Z,8.54
2022-11-23T08:34:27.546Z,8.58
2022-11-23T08:35:27.546Z,8.55
2022-11-23T08:36:28.566Z,8.45
2022-11-23T08:37:26.582Z,8.58
2022-11-23T08:38:26.597Z,8.64
2022-11-23T08:39:26.590Z,8.57
2022-11-23T08:40:26.649Z,8.60
2022-11-23T08:41:26.549Z,8.64
2022-11-23T08:42:26.538Z,8.60
2022-11-23T08:43:26.520Z,8.58
2022-11-23T08:44:26.531Z,8.63
2022-11-23T08:45:26.529Z,8.68
2022-11-23T08:46:26.501Z,8.67
2022-11-23T08:47:26.486Z,8.68
2022-11-23T08:48:26.491Z,8.70
2022-11-23T08:49:26.463Z,8.75
2022-11-23T08:50:26.440Z,8.83
2022-11-23T08:51:26.436Z,8.80
2022-11-23T08:52:26.566Z,8.80
2022-11-23T08:53:26.408Z,8.83
2022-11-23T08:54:27.040Z,8.88
2022-11-23T08:55:26.579Z,8.93
2022-11-23T08:56:26.377Z,8.89
2022-11-23T08:57:26.389Z,8.88
2022-11-23T08:58:26.355Z,8.80
2022-11-23T08:59:26.363Z,8.85
2022-11-23T09:00:26.342Z,8.80
2022-11-23T09:01:26.416Z,8.91
2022-11-23T09:02:26.322Z,8.91
2022-11-23T09:03:26.288Z,8.88
2022-11-23T09:04:26.294Z,8.85
2022-11-23T09:05:26.271Z,8.89
2022-11-23T09:06:26.327Z,8.89
2022-11-23T09:07:26.322Z,8.89
2022-11-23T09:08:26.255Z,8.98
2022-11-23T09:09:26.230Z,9.00
2022-11-23T09:10:27.041Z,8.97
2022-11-23T09:11:26.205Z,8.96
2022-11-23T09:12:26.232Z,8.98
2022-11-23T09:13:29.034Z,9.04
2022-11-23T09:14:26.176Z,8.96
2022-11-23T09:15:26.174Z,9.06
2022-11-23T09:16:30.999Z,9.10
2022-11-23T09:17:27.181Z,9.16
2022-11-23T09:18:26.133Z,9.10
2022-11-23T09:19:26.559Z,9.13
2022-11-23T09:20:26.119Z,9.19
2022-11-23T09:21:27.064Z,9.22
2022-11-23T09:22:26.090Z,9.17
2022-11-23T09:23:27.044Z,9.20
2022-11-23T09:24:30.373Z,9.22
2022-11-23T09:25:26.075Z,9.17
2022-11-23T09:26:27.049Z,9.34
2022-11-23T09:27:26.026Z,9.41
2022-11-23T09:28:26.075Z,9.40
2022-11-23T09:29:26.010Z,9.38
2022-11-23T09:30:26.035Z,9.35
2022-11-23T09:31:25.983Z,9.53
2022-11-23T09:32:26.003Z,9.45
2022-11-23T09:33:25.979Z,9.53
2022-11-23T09:34:28.547Z,9.52
2022-11-23T09:35:25.947Z,9.52
2022-11-23T09:36:26.029Z,9.62
2022-11-23T09:37:25.921Z,9.55
2022-11-23T09:38:51.585Z,9.62
2022-11-23T09:39:26.900Z,9.60
2022-11-23T09:40:28.554Z,9.62
2022-11-23T09:41:25.869Z,9.70
2022-11-23T09:42:26.077Z,9.80
2022-11-23T09:43:25.859Z,9.80
2022-11-23T09:44:25.844Z,9.83
2022-11-23T09:45:25.840Z,9.86
2022-11-23T09:46:25.821Z,9.91
2022-11-23T09:47:26.542Z,9.88
2022-11-23T09:48:25.820Z,9.85
2022-11-23T09:49:25.828Z,9.92
2022-11-23T09:50:25.778Z,9.96
2022-11-23T09:51:25.770Z,10.04
2022-11-23T09:52:25.758Z,10.01
2022-11-23T09:53:25.771Z,10.18
2022-11-23T09:54:32.801Z,10.09
2022-11-23T09:55:25.716Z,10.01
2022-11-23T09:56:25.710Z,10.09
2022-11-23T09:57:26.542Z,10.02
2022-11-23T09:58:25.678Z,10.09
2022-11-23T09:59:27.577Z,10.13
2022-11-23T10:00:26.541Z,10.09
2022-11-23T10:01:25.738Z,10.17
2022-11-23T10:02:25.651Z,10.18
2022-11-23T10:03:25.632Z,10.09
2022-11-23T10:04:28.555Z,10.02
2022-11-23T10:05:26.602Z,10.11
2022-11-23T10:06:25.600Z,10.11
2022-11-23T10:07:25.651Z,10.16
2022-11-23T10:08:25.579Z,10.18
2022-11-23T10:09:25.558Z,10.24
2022-11-23T10:10:25.554Z,10.24
2022-11-23T10:11:25.565Z,10.24
2022-11-23T10:12:25.538Z,10.22
2022-11-23T10:13:25.544Z,10.25
2022-11-23T10:14:25.510Z,10.25
2022-11-23T10:15:32.045Z,10.31
2022-11-23T10:16:25.487Z,10.32
2022-11-23T10:17:25.496Z,10.32
2022-11-23T10:18:25.465Z,10.31
2022-11-23T10:19:40.056Z,10.32
2022-11-23T10:20:25.436Z,10.32
2022-11-23T10:21:25.455Z,10.35
2022-11-23T10:22:25.443Z,10.38
2022-11-23T10:23:25.417Z,10.34
2022-11-23T10:24:25.396Z,10.36
2022-11-23T10:25:25.382Z,10.31
2022-11-23T10:26:25.395Z,10.42
2022-11-23T10:27:25.368Z,10.38
2022-11-23T10:28:25.401Z,10.38
2022-11-23T10:29:25.341Z,10.43
2022-11-23T10:30:25.331Z,10.38
2022-11-23T10:31:25.321Z,10.39
2022-11-23T10:32:26.338Z,10.36
2022-11-23T10:33:25.295Z,10.39
2022-11-23T10:34:25.578Z,10.44
2022-11-23T10:35:25.288Z,10.39
2022-11-23T10:36:25.295Z,10.44
2022-11-23T10:37:28.043Z,10.46
2022-11-23T10:38:28.051Z,10.54
2022-11-23T10:39:25.243Z,10.51
2022-11-23T10:40:25.242Z,10.62
2022-11-23T10:41:26.079Z,10.68
2022-11-23T10:42:25.192Z,10.63
2022-11-23T10:43:32.051Z,10.65
2022-11-23T10:44:28.049Z,10.60
2022-11-23T10:45:25.189Z,10.68
2022-11-23T10:46:25.172Z,10.63
2022-11-23T10:47:25.141Z,10.54
2022-11-23T10:48:25.127Z,10.52
2022-11-23T10:49:25.132Z,10.66
2022-11-23T10:50:28.056Z,10.55
2022-11-23T10:51:26.077Z,10.57
2022-11-23T10:52:25.112Z,10.57
2022-11-23T10:53:25.086Z,10.62
2022-11-23T10:54:26.044Z,10.57
2022-11-23T10:55:25.051Z,10.60
2022-11-23T10:56:25.045Z,10.66
2022-11-23T10:57:25.039Z,10.70
2022-11-23T10:58:25.026Z,10.70
2022-11-23T10:59:25.032Z,10.78
2022-11-23T11:00:30.226Z,10.83
2022-11-23T11:01:26.029Z,10.86
2022-11-23T11:02:27.540Z,10.83
2022-11-23T11:03:24.969Z,10.81
2022-11-23T11:04:45.974Z,10.84
2022-11-23T11:05:40.208Z,10.80
2022-11-23T11:06:26.136Z,10.70
2022-11-23T11:07:25.005Z,10.80
2022-11-23T11:08:24.899Z,10.86
2022-11-23T11:09:25.978Z,10.84
2022-11-23T11:10:27.541Z,10.81
2022-11-23T11:11:24.870Z,10.90
2022-11-23T11:12:24.876Z,11.02
2022-11-23T11:13:25.546Z,10.98
2022-11-23T11:14:24.855Z,10.93
2022-11-23T11:15:27.552Z,11.03
2022-11-23T11:16:24.999Z,10.90
2022-11-23T11:17:24.817Z,10.99
2022-11-23T11:18:24.789Z,11.05
2022-11-23T11:19:24.819Z,11.03
2022-11-23T11:20:24.778Z,11.02
2022-11-23T11:21:31.571Z,10.98
2022-11-23T11:22:27.562Z,11.02
2022-11-23T11:23:25.555Z,10.98
2022-11-23T11:24:24.728Z,11.03
2022-11-23T11:25:26.580Z,11.01
2022-11-23T11:26:25.676Z,10.93
2022-11-23T11:27:25.563Z,10.91
2022-11-23T11:28:25.554Z,10.98
2022-11-23T11:29:24.677Z,11.06
2022-11-23T11:30:24.662Z,11.12
2022-11-23T11:31:26.587Z,11.09
2022-11-23T11:32:39.546Z,11.08
2022-11-23T11:33:24.639Z,11.09
2022-11-23T11:34:24.622Z,11.01
2022-11-23T11:35:24.610Z,10.98
2022-11-23T11:36:24.767Z,11.06
2022-11-23T11:37:25.106Z,10.99
2022-11-23T11:38:24.583Z,10.93
2022-11-23T11:39:24.565Z,10.95
2022-11-23T11:40:24.552Z,11.03
2022-11-23T11:41:24.542Z,10.98
2022-11-23T11:42:25.056Z,11.03
2022-11-23T11:43:31.445Z,11.12
2022-11-23T11:44:25.512Z,11.19
2022-11-23T11:45:24.549Z,11.17
2022-11-23T11:46:29.391Z,11.26
2022-11-23T11:47:24.491Z,11.23
2022-11-23T11:48:24.464Z,11.28
2022-11-23T11:49:25.056Z,11.23
2022-11-23T11:50:30.011Z,11.20
2022-11-23T11:51:25.592Z,11.23
2022-11-23T11:52:27.048Z,11.23
2022-11-23T11:53:27.073Z,11.30
2022-11-23T11:54:24.397Z,11.33
2022-11-23T11:55:24.401Z,11.35
2022-11-23T11:56:24.569Z,11.27
2022-11-23T11:57:24.649Z,11.38
2022-11-23T11:58:25.050Z,11.41
2022-11-23T11:59:24.346Z,11.42
2022-11-23T12:00:24.336Z,11.57
2022-11-23T12:01:24.339Z,11.51
2022-11-23T12:02:24.443Z,11.46
2022-11-23T12:03:24.295Z,11.38
2022-11-23T12:04:24.284Z,11.45
2022-11-23T12:05:25.049Z,11.38
2022-11-23T12:06:26.828Z,11.36
2022-11-23T12:07:24.276Z,11.33
2022-11-23T12:08:24.571Z,11.35
2022-11-23T12:09:24.252Z,11.31
2022-11-23T12:10:24.215Z,11.38
2022-11-23T12:11:25.065Z,11.48
2022-11-23T12:12:29.604Z,11.53
2022-11-23T12:13:24.202Z,11.53
2022-11-23T12:14:24.580Z,11.51
2022-11-23T12:15:48.301Z,11.51
2022-11-23T12:16:25.168Z,11.53
2022-11-23T12:17:32.923Z,11.62
2022-11-23T12:18:25.149Z,11.64
2022-11-23T12:19:27.044Z,11.70
2022-11-23T12:20:25.134Z,11.74
2022-11-23T12:21:24.141Z,11.63
2022-11-23T12:22:27.060Z,11.54
2022-11-23T12:23:24.077Z,11.53
2022-11-23T12:24:24.087Z,11.48
2022-11-23T12:25:24.067Z,11.56
2022-11-23T12:26:26.577Z,11.46
2022-11-23T12:27:24.547Z,11.49
2022-11-23T12:28:24.031Z,11.53
2022-11-23T12:29:24.552Z,11.59
2022-11-23T12:30:24.082Z,11.69
2022-11-23T12:31:24.016Z,11.60
2022-11-23T12:32:24.096Z,11.57
2022-11-23T12:33:25.030Z,11.59
2022-11-23T12:34:23.958Z,11.60
2022-11-23T12:35:23.955Z,11.57
2022-11-23T12:36:24.164Z,11.59
2022-11-23T12:37:24.078Z,11.62
2022-11-23T12:38:23.914Z,11.59
2022-11-23T12:39:23.894Z,11.64
2022-11-23T12:40:23.886Z,11.54
2022-11-23T12:41:24.108Z,11.49
2022-11-23T12:42:24.551Z,11.45
2022-11-23T12:43:23.852Z,11.46
2022-11-23T12:44:24.556Z,11.57
2022-11-23T12:45:23.826Z,11.69
2022-11-23T12:46:23.820Z,11.70
2022-11-23T12:47:24.095Z,11.67
2022-11-23T12:48:23.801Z,11.60
2022-11-23T12:49:23.794Z,11.72
2022-11-23T12:50:24.558Z,11.72
2022-11-23T12:51:23.786Z,11.74
2022-11-23T12:52:23.755Z,11.75
2022-11-23T12:53:24.192Z,11.84
2022-11-23T12:54:23.725Z,11.78
2022-11-23T12:55:23.737Z,11.78
2022-11-23T12:56:23.735Z,11.77
2022-11-23T12:57:23.767Z,11.69
2022-11-23T12:58:23.730Z,11.56
2022-11-23T12:59:23.673Z,11.53
2022-11-23T13:00:23.674Z,11.59
2022-11-23T13:01:29.354Z,11.54
2022-11-23T13:02:24.740Z,11.53
2022-11-23T13:03:23.628Z,11.62
2022-11-23T13:04:23.625Z,11.56
2022-11-23T13:05:23.609Z,11.56
2022-11-23T13:06:23.623Z,11.64
2022-11-23T13:07:38.323Z,11.59
2022-11-23T13:08:24.702Z,11.62
2022-11-23T13:09:23.594Z,11.78
2022-11-23T13:10:23.545Z,11.77
2022-11-23T13:11:23.555Z,11.72